Clear Lake, IA (50428)

04:21 CDT le 23 octobre 2014 (GMT -0500)
South of Oak Hills Golf C. | Change Station
CLOSE
Current Station
Stations météorologiques personnelles
Location: Clear Lake, IA
Altitude: 1263 ft
Stations météo à proximité

Alt. 1263 ft 43.11 °N, 93.38 °W | Updated 1 second ago

Overcast
Couvert
49.7 ° F
Paraît 49 ° F
N
4.0
Vent Variable Vent de Sud
Gusts 8.0 mph

Aujourd'hui
Haut(e) -- | Bas -- ° F
--% Risque de précip.
Hier
Haut(e) -- | Bas -- ° F
Precip. -- pouce
7:36 AM 6:18 PM
Lune descendante, 0% visible
Pression 30.04 pouce
Visibilité 10.0 Miles terrestres
Nuages Nuageux 4400 ft
Couvert 6000 ft
Refroidissement éolien 49 ° F
Point de rosée 47 ° F
Humidité 91%
Précipitations 0.00 pouce
Profondeur de la couche neigeuse Non disponible.
UV 0 sur 12
Pollen 1.50 sur 12
Qualité de l'air Non disponible.
Flu Activity Sporadic
METAR KMCW 230853Z AUTO 16009KT 10SM BKN044 OVC060 10/08 A3005 RMK AO2 SLP172 60000 T01000078 58011

More Conditions Fewer Conditions

Pression 30.04 pouce
Visibilité 10.0 Miles terrestres
Nuages Nuageux 4400 ft
Couvert 6000 ft
Refroidissement éolien 49 ° F
Point de rosée 47 ° F
Humidité 91%
Précipitations 0.00 pouce
Profondeur de la couche neigeuse Non disponible.
UV 0 sur 12
Pollen 1.50 sur 12
Qualité de l'air Non disponible.
Flu Activity Sporadic
METAR KMCW 230853Z AUTO 16009KT 10SM BKN044 OVC060 10/08 A3005 RMK AO2 SLP172 60000 T01000078 58011

More Conditions Fewer Conditions

10-Day Weather Forecast

Almanac

Astronomie

Oct. 23, 2014 Lever Coucher
Temps réel 07:36 CDT 18:18 CDT
Crépuscule civil 07:07 CDT 18:47 CDT
Crépuscule nautique 06:34 CDT 19:20 CDT
Crépuscule astronomique 06:01 CDT 19:53 CDT
Lune 07:16 CDT 18:19 CDT
Durée de lumière visible 11h 39m
Longueur du jour
10h 41m
Tomorrow will be 2m 45s shorter.
Lune descendante, 0% of the Moon is Illuminated
Aujourd'hui
Lune descendante
Oct 23
Nouveau
Oct 30
Premier quartier
Nov 6
Pleine lune
Nov 14
Dernier quartier

Extrêmes aujourd'hui

State Highs State Lows

Community

WunderPhotos

Upload Photos

1,764,199 Photos téléchargées !

Nearby

Épaisseur de neige

Station Depth Altitude
Pas de nouvelles chutes de neige

Activité sismique

Ville Distance Mag. Time & Date
No recent earthquake activity has been reported nearby.
Minimum magnitude displayed is 2.5.

Températures des eaux côtières

Lieu Température
Aucun rapport de station

Stations météo à proximité